Darstellungsparameter: Aktuell verwendete Einstellungen:
Skalierung der Graphiken ... ?
xyx+y,   Skalierungsfaktor:      Skalierung: Modus: x, Faktor: 1
Darstellungszeitraum ... ?
Vom - - bis: - -   Zeitraum: 15.05.2021 - 15.05.2021
Min/Max/Avg-Anzeige ... ?
Zeige MMA aktuell
Zeige MMA Monat
Zeige MMA alles
Zeige --A aktuell
Zeige --A Monat
Zeige --A alles
Keine MMA-Anzeige
MMA:
Keine MMA-Graphiken
MMA-Basis: 15.05.2021 - 15.05.2021
Quicknavigation für Darstellung... ?
Tage:      1T, 2T, 3T, 5T -1T -2T -3T -5T +1T +2T +3T +5T
Wochen: 1W, 2W, 3W -1W -2W -3W +1W +2W +3W
Monate: 1M, 3M, 6M -1M -3M -6M +1M +3M +6M
Jahre:    1J, 3J, 5J, 10J -1J -3J -5J -10J +1J +3J +5J +10J
Nutze für die Darstellung ... ?
Originaldaten oder Mittelwerte auf ...
Stundenbasis Tagesbasis Wochenbasis
Monatsbasis Jahresbasis      Datenbasis: Original-Daten
Darstellen als:
Statistik (Auto) Statistik J:M      Darstellung:
Zur Graphik,    zurück zur Übersicht aller Sensoren.
 
Tabellarische Datenbersicht: ?
 
Sensor: Nr:Datum:Temp:Feuchte:Taupunkt:
Aussen-T/F 1 15-05-2021 00:00:00 11.6 C 81 % 8.45 C
2 15-05-2021 00:05:00 11.5 C 81 % 8.36 C
3 15-05-2021 00:10:00 11.4 C 82 % 8.44 C
4 15-05-2021 00:15:00 11.4 C 82 % 8.44 C
5 15-05-2021 00:20:00 11.3 C 82 % 8.34 C
6 15-05-2021 00:25:00 11.2 C 83 % 8.42 C
7 15-05-2021 00:30:00 11.1 C 83 % 8.33 C
8 15-05-2021 00:35:00 11 C 83 % 8.23 C
9 15-05-2021 00:40:00 10.9 C 83 % 8.13 C
10 15-05-2021 00:45:00 10.9 C 82 % 7.95 C
11 15-05-2021 00:50:00 10.8 C 82 % 7.85 C
12 15-05-2021 00:55:00 10.7 C 82 % 7.76 C
13 15-05-2021 01:00:00 10.7 C 82 % 7.76 C
14 15-05-2021 01:05:00 10.6 C 82 % 7.66 C
15 15-05-2021 01:10:00 10.4 C 83 % 7.64 C
16 15-05-2021 01:15:00 10.3 C 83 % 7.54 C
17 15-05-2021 01:20:00 10.3 C 84 % 7.72 C
18 15-05-2021 01:25:00 10.2 C 84 % 7.62 C
19 15-05-2021 01:30:00 10.2 C 85 % 7.79 C
20 15-05-2021 01:35:00 10.2 C 85 % 7.79 C
21 15-05-2021 01:40:00 10.1 C 85 % 7.7 C
22 15-05-2021 01:45:00 10.1 C 85 % 7.7 C
23 15-05-2021 01:50:00 10.1 C 86 % 7.87 C
24 15-05-2021 01:55:00 10.1 C 86 % 7.87 C
25 15-05-2021 02:00:00 10.1 C 86 % 7.87 C
Sensor: Nr:Datum:Temp:Feuchte:Taupunkt:
Aussen-T/F 26 15-05-2021 02:05:00 10.1 C 86 % 7.87 C
27 15-05-2021 02:10:00 9.9 C 86 % 7.67 C
28 15-05-2021 02:15:00 9.8 C 86 % 7.57 C
29 15-05-2021 02:20:00 9.7 C 86 % 7.47 C
30 15-05-2021 02:25:00 9.6 C 86 % 7.38 C
31 15-05-2021 02:30:00 9.5 C 87 % 7.45 C
32 15-05-2021 02:35:00 9.3 C 87 % 7.25 C
33 15-05-2021 02:40:00 9.2 C 87 % 7.15 C
34 15-05-2021 02:45:00 9.1 C 87 % 7.05 C
35 15-05-2021 02:50:00 9 C 88 % 7.12 C
36 15-05-2021 02:55:00 8.8 C 88 % 6.93 C
37 15-05-2021 03:00:00 8.7 C 88 % 6.83 C
38 15-05-2021 03:05:00 8.6 C 88 % 6.73 C
39 15-05-2021 03:10:00 8.5 C 89 % 6.79 C
40 15-05-2021 03:15:00 8.4 C 89 % 6.7 C
41 15-05-2021 03:20:00 8.4 C 89 % 6.7 C
42 15-05-2021 03:25:00 8.3 C 90 % 6.76 C
43 15-05-2021 03:30:00 8.3 C 90 % 6.76 C
44 15-05-2021 03:35:00 8.3 C 90 % 6.76 C
45 15-05-2021 03:40:00 8.2 C 90 % 6.66 C
46 15-05-2021 03:45:00 8.2 C 91 % 6.82 C
47 15-05-2021 03:50:00 8.2 C 91 % 6.82 C
48 15-05-2021 03:55:00 8.1 C 91 % 6.72 C
49 15-05-2021 04:00:00 8.1 C 91 % 6.72 C
50 15-05-2021 04:05:00 8.2 C 91 % 6.82 C
Sensor: Nr:Datum:Temp:Feuchte:Taupunkt:
Aussen-T/F 51 15-05-2021 04:10:00 8.3 C 92 % 7.08 C
52 15-05-2021 04:15:00 8.4 C 92 % 7.18 C
53 15-05-2021 04:20:00 8.5 C 92 % 7.28 C
54 15-05-2021 04:25:00 8.6 C 92 % 7.38 C
55 15-05-2021 04:30:00 8.7 C 92 % 7.47 C
56 15-05-2021 04:35:00 8.7 C 92 % 7.47 C
57 15-05-2021 04:40:00 8.7 C 92 % 7.47 C
58 15-05-2021 04:45:00 8.8 C 92 % 7.57 C
59 15-05-2021 04:50:00 8.9 C 92 % 7.67 C
60 15-05-2021 04:55:00 8.9 C 92 % 7.67 C
61 15-05-2021 05:00:00 9 C 92 % 7.77 C
62 15-05-2021 05:05:00 9 C 92 % 7.77 C
63 15-05-2021 05:10:00 9.1 C 92 % 7.87 C
64 15-05-2021 05:15:00 9.2 C 93 % 8.13 C
65 15-05-2021 05:20:00 9.3 C 93 % 8.23 C
66 15-05-2021 05:25:00 9.3 C 93 % 8.23 C
67 15-05-2021 05:30:00 9.3 C 93 % 8.23 C
68 15-05-2021 05:35:00 9.4 C 93 % 8.33 C
69 15-05-2021 05:40:00 9.4 C 93 % 8.33 C
70 15-05-2021 05:45:00 9.5 C 93 % 8.43 C
71 15-05-2021 05:50:00 9.6 C 93 % 8.53 C
72 15-05-2021 05:55:00 9.6 C 93 % 8.53 C
73 15-05-2021 06:00:00 9.6 C 93 % 8.53 C
74 15-05-2021 06:05:00 9.7 C 93 % 8.62 C
75 15-05-2021 06:10:00 9.7 C 93 % 8.62 C
Sensor: Nr:Datum:Temp:Feuchte:Taupunkt:
Aussen-T/F 76 15-05-2021 06:15:00 9.7 C 93 % 8.62 C
77 15-05-2021 06:20:00 9.7 C 93 % 8.62 C
78 15-05-2021 06:25:00 9.7 C 93 % 8.62 C
79 15-05-2021 06:30:00 9.7 C 93 % 8.62 C
80 15-05-2021 06:35:00 9.7 C 93 % 8.62 C
81 15-05-2021 06:40:00 9.7 C 93 % 8.62 C
82 15-05-2021 06:45:00 9.8 C 93 % 8.72 C
83 15-05-2021 06:50:00 9.8 C 93 % 8.72 C
84 15-05-2021 06:55:00 9.8 C 93 % 8.72 C
85 15-05-2021 07:00:00 9.9 C 93 % 8.82 C
86 15-05-2021 07:05:00 10.1 C 93 % 9.02 C
87 15-05-2021 07:10:00 10.2 C 93 % 9.12 C
88 15-05-2021 07:15:00 10.2 C 92 % 8.96 C
89 15-05-2021 07:20:00 10.3 C 92 % 9.06 C
90 15-05-2021 07:25:00 10.3 C 92 % 9.06 C
91 15-05-2021 07:30:00 10.3 C 92 % 9.06 C
92 15-05-2021 07:35:00 10.3 C 92 % 9.06 C
93 15-05-2021 07:40:00 10.2 C 92 % 8.96 C
94 15-05-2021 07:45:00 10.3 C 92 % 9.06 C
95 15-05-2021 07:50:00 10.3 C 92 % 9.06 C
96 15-05-2021 07:55:00 10.3 C 93 % 9.22 C
97 15-05-2021 08:00:00 10.4 C 93 % 9.32 C
98 15-05-2021 08:05:00 10.4 C 92 % 9.16 C
99 15-05-2021 08:10:00 10.4 C 92 % 9.16 C
100 15-05-2021 08:15:00 10.5 C 92 % 9.26 C
Sensor: Nr:Datum:Temp:Feuchte:Taupunkt:
Aussen-T/F 101 15-05-2021 08:20:00 10.5 C 91 % 9.09 C
102 15-05-2021 08:25:00 10.5 C 91 % 9.09 C
103 15-05-2021 08:30:00 10.6 C 91 % 9.19 C
104 15-05-2021 08:35:00 10.7 C 91 % 9.29 C
105 15-05-2021 08:40:00 10.8 C 90 % 9.23 C
106 15-05-2021 08:45:00 10.8 C 90 % 9.23 C
107 15-05-2021 08:50:00 10.9 C 89 % 9.16 C
108 15-05-2021 08:55:00 11.1 C 88 % 9.19 C
109 15-05-2021 09:00:00 11.1 C 87 % 9.02 C
110 15-05-2021 09:05:00 11.2 C 86 % 8.95 C
111 15-05-2021 09:10:00 11.3 C 86 % 9.05 C
112 15-05-2021 09:15:00 11.4 C 85 % 8.97 C
113 15-05-2021 09:20:00 11.4 C 85 % 8.97 C
114 15-05-2021 09:25:00 11.4 C 84 % 8.8 C
115 15-05-2021 09:30:00 11.6 C 85 % 9.17 C
116 15-05-2021 09:35:00 11.7 C 84 % 9.09 C
117 15-05-2021 09:40:00 11.8 C 83 % 9.01 C
118 15-05-2021 09:45:00 11.9 C 83 % 9.11 C
119 15-05-2021 09:50:00 12.1 C 82 % 9.12 C
120 15-05-2021 09:55:00 12.1 C 81 % 8.94 C
121 15-05-2021 10:00:00 12.2 C 82 % 9.22 C
122 15-05-2021 10:05:00 12.4 C 82 % 9.42 C
123 15-05-2021 10:10:00 12.5 C 80 % 9.15 C
124 15-05-2021 10:15:00 12.7 C 80 % 9.34 C
125 15-05-2021 10:20:00 12.9 C 80 % 9.54 C
Sensor: Nr:Datum:Temp:Feuchte:Taupunkt:
Aussen-T/F 126 15-05-2021 10:25:00 13.2 C 80 % 9.83 C
127 15-05-2021 10:30:00 13.3 C 77 % 9.36 C
128 15-05-2021 10:35:00 13.4 C 77 % 9.45 C
129 15-05-2021 10:40:00 13.4 C 78 % 9.65 C
130 15-05-2021 10:45:00 13.4 C 76 % 9.26 C
131 15-05-2021 10:50:00 13.4 C 78 % 9.65 C
132 15-05-2021 10:55:00 13.4 C 76 % 9.26 C
133 15-05-2021 11:00:00 13.4 C 77 % 9.45 C
134 15-05-2021 11:05:00 13.5 C 76 % 9.36 C
135 15-05-2021 11:10:00 13.6 C 77 % 9.65 C
136 15-05-2021 11:15:00 13.7 C 76 % 9.55 C
137 15-05-2021 11:20:00 13.8 C 75 % 9.45 C
138 15-05-2021 11:25:00 13.9 C 75 % 9.55 C
139 15-05-2021 11:30:00 14.1 C 74 % 9.54 C
140 15-05-2021 11:35:00 14.3 C 75 % 9.93 C
141 15-05-2021 11:40:00 14.3 C 74 % 9.73 C
142 15-05-2021 11:45:00 14.1 C 76 % 9.94 C
143 15-05-2021 11:50:00 13.8 C 78 % 10.03 C
144 15-05-2021 11:55:00 13.8 C 81 % 10.6 C
145 15-05-2021 12:00:00 13.7 C 81 % 10.5 C
146 15-05-2021 12:05:00 13.6 C 80 % 10.22 C
147 15-05-2021 12:10:00 13.4 C 80 % 10.02 C
148 15-05-2021 12:15:00 13.5 C 80 % 10.12 C
149 15-05-2021 12:20:00 13.6 C 79 % 10.03 C
150 15-05-2021 12:25:00 13.4 C 82 % 10.39 C
Sensor: Nr:Datum:Temp:Feuchte:Taupunkt:
Aussen-T/F 151 15-05-2021 12:30:00 13.4 C 85 % 10.93 C
152 15-05-2021 12:35:00 13.3 C 85 % 10.83 C
153 15-05-2021 12:40:00 13.2 C 86 % 10.91 C
154 15-05-2021 12:45:00 13.2 C 86 % 10.91 C
155 15-05-2021 12:50:00 12.8 C 84 % 10.17 C
156 15-05-2021 12:55:00 12.1 C 85 % 9.66 C
157 15-05-2021 13:00:00 11.7 C 86 % 9.44 C
158 15-05-2021 13:05:00 11.3 C 87 % 9.22 C
159 15-05-2021 13:10:00 11.2 C 89 % 9.46 C
160 15-05-2021 13:15:00 11.2 C 91 % 9.79 C
161 15-05-2021 13:20:00 11.3 C 91 % 9.89 C
162 15-05-2021 13:25:00 11.4 C 91 % 9.98 C
163 15-05-2021 13:30:00 11.7 C 90 % 10.12 C
164 15-05-2021 13:35:00 11.9 C 90 % 10.31 C
165 15-05-2021 13:40:00 12.2 C 89 % 10.44 C
166 15-05-2021 13:45:00 12.4 C 90 % 10.81 C
167 15-05-2021 13:50:00 12.7 C 90 % 11.1 C
168 15-05-2021 13:55:00 12.9 C 88 % 10.96 C
169 15-05-2021 14:00:00 13.2 C 86 % 10.91 C
170 15-05-2021 14:05:00 13.4 C 85 % 10.93 C
171 15-05-2021 14:10:00 13.6 C 85 % 11.13 C
172 15-05-2021 14:15:00 13.7 C 84 % 11.05 C
173 15-05-2021 14:20:00 13.8 C 84 % 11.15 C
174 15-05-2021 14:25:00 13.9 C 84 % 11.24 C
175 15-05-2021 14:30:00 13.8 C 83 % 10.97 C
Sensor: Nr:Datum:Temp:Feuchte:Taupunkt:
Aussen-T/F 176 15-05-2021 14:35:00 13.8 C 85 % 11.32 C
177 15-05-2021 14:40:00 13.3 C 84 % 10.66 C
178 15-05-2021 14:45:00 12.8 C 84 % 10.17 C
179 15-05-2021 14:50:00 12.7 C 87 % 10.59 C
180 15-05-2021 14:55:00 12.7 C 86 % 10.42 C
181 15-05-2021 15:00:00 12.7 C 86 % 10.42 C
182 15-05-2021 15:05:00 13.2 C 88 % 11.26 C
183 15-05-2021 15:10:00 13.7 C 88 % 11.75 C
184 15-05-2021 15:15:00 13.9 C 87 % 11.77 C
185 15-05-2021 15:20:00 13.9 C 84 % 11.24 C
186 15-05-2021 15:25:00 13.8 C 82 % 10.78 C
187 15-05-2021 15:30:00 13.7 C 82 % 10.69 C
188 15-05-2021 15:35:00 13.7 C 84 % 11.05 C
189 15-05-2021 15:40:00 13.7 C 85 % 11.23 C
190 15-05-2021 15:45:00 13.7 C 85 % 11.23 C
191 15-05-2021 15:50:00 13.6 C 85 % 11.13 C
192 15-05-2021 15:55:00 13.3 C 84 % 10.66 C
193 15-05-2021 16:00:00 13.2 C 83 % 10.38 C
194 15-05-2021 16:05:00 13.3 C 84 % 10.66 C
195 15-05-2021 16:10:00 13.5 C 81 % 10.31 C
196 15-05-2021 16:15:00 13.7 C 81 % 10.5 C
197 15-05-2021 16:20:00 13.8 C 79 % 10.22 C
198 15-05-2021 16:25:00 13.9 C 79 % 10.32 C
199 15-05-2021 16:30:00 14 C 82 % 10.98 C
200 15-05-2021 16:35:00 14.1 C 83 % 11.26 C
Sensor: Nr:Datum:Temp:Feuchte:Taupunkt:
Aussen-T/F 201 15-05-2021 16:40:00 14 C 80 % 10.61 C
202 15-05-2021 16:45:00 14 C 79 % 10.42 C
203 15-05-2021 16:50:00 14 C 82 % 10.98 C
204 15-05-2021 16:55:00 13.9 C 78 % 10.13 C
205 15-05-2021 17:00:00 13.9 C 80 % 10.51 C
206 15-05-2021 17:05:00 13.8 C 78 % 10.03 C
207 15-05-2021 17:10:00 13.8 C 81 % 10.6 C
208 15-05-2021 17:15:00 13.8 C 81 % 10.6 C
209 15-05-2021 17:20:00 13.6 C 83 % 10.77 C
210 15-05-2021 17:25:00 13.4 C 82 % 10.39 C
211 15-05-2021 17:30:00 13.3 C 84 % 10.66 C
212 15-05-2021 17:35:00 13.3 C 85 % 10.83 C
213 15-05-2021 17:40:00 13.3 C 86 % 11.01 C
214 15-05-2021 17:45:00 13.2 C 84 % 10.56 C
215 15-05-2021 17:50:00 13.1 C 85 % 10.64 C
216 15-05-2021 17:55:00 13.1 C 86 % 10.81 C
217 15-05-2021 18:00:00 13 C 87 % 10.89 C
218 15-05-2021 18:05:00 13 C 88 % 11.06 C
219 15-05-2021 18:10:00 12.9 C 89 % 11.13 C
220 15-05-2021 18:15:00 12.8 C 89 % 11.03 C
221 15-05-2021 18:20:00 12.9 C 89 % 11.13 C
222 15-05-2021 18:25:00 12.8 C 88 % 10.86 C
223 15-05-2021 18:30:00 12.8 C 89 % 11.03 C
224 15-05-2021 18:35:00 12.9 C 89 % 11.13 C
225 15-05-2021 18:40:00 12.9 C 89 % 11.13 C
Sensor: Nr:Datum:Temp:Feuchte:Taupunkt:
Aussen-T/F 226 15-05-2021 18:45:00 12.9 C 89 % 11.13 C
227 15-05-2021 18:50:00 12.9 C 89 % 11.13 C
228 15-05-2021 18:55:00 12.9 C 89 % 11.13 C
229 15-05-2021 19:00:00 12.8 C 89 % 11.03 C
230 15-05-2021 19:05:00 12.8 C 90 % 11.2 C
231 15-05-2021 19:10:00 12.8 C 90 % 11.2 C
232 15-05-2021 19:15:00 12.8 C 90 % 11.2 C
233 15-05-2021 19:20:00 12.7 C 90 % 11.1 C
234 15-05-2021 19:25:00 12.7 C 90 % 11.1 C
235 15-05-2021 19:30:00 12.6 C 91 % 11.17 C
236 15-05-2021 19:35:00 12.5 C 91 % 11.07 C
237 15-05-2021 19:40:00 12.4 C 91 % 10.97 C
238 15-05-2021 19:45:00 12.3 C 91 % 10.87 C
239 15-05-2021 19:50:00 12.3 C 91 % 10.87 C
240 15-05-2021 19:55:00 12.2 C 91 % 10.78 C
241 15-05-2021 20:00:00 12.1 C 91 % 10.68 C
242 15-05-2021 20:05:00 12 C 91 % 10.58 C
243 15-05-2021 20:10:00 11.9 C 92 % 10.64 C
244 15-05-2021 20:15:00 11.9 C 92 % 10.64 C
245 15-05-2021 20:20:00 11.8 C 92 % 10.54 C
246 15-05-2021 20:25:00 11.7 C 92 % 10.44 C
247 15-05-2021 20:30:00 11.6 C 92 % 10.35 C
248 15-05-2021 20:35:00 11.6 C 92 % 10.35 C
249 15-05-2021 20:40:00 11.6 C 92 % 10.35 C
250 15-05-2021 20:45:00 11.6 C 93 % 10.51 C
Sensor: Nr:Datum:Temp:Feuchte:Taupunkt:
Aussen-T/F 251 15-05-2021 20:50:00 11.6 C 93 % 10.51 C
252 15-05-2021 20:55:00 11.5 C 92 % 10.25 C
253 15-05-2021 21:00:00 11.5 C 93 % 10.41 C
254 15-05-2021 21:05:00 11.4 C 93 % 10.31 C
255 15-05-2021 21:10:00 11.3 C 93 % 10.21 C
256 15-05-2021 21:15:00 11.3 C 93 % 10.21 C
257 15-05-2021 21:20:00 11.3 C 93 % 10.21 C
258 15-05-2021 21:25:00 11.2 C 92 % 9.95 C
259 15-05-2021 21:30:00 11.1 C 92 % 9.85 C
260 15-05-2021 21:35:00 10.8 C 92 % 9.55 C
261 15-05-2021 21:40:00 10.6 C 92 % 9.36 C
262 15-05-2021 21:45:00 10.4 C 92 % 9.16 C
263 15-05-2021 21:50:00 10.3 C 92 % 9.06 C
264 15-05-2021 21:55:00 10.2 C 93 % 9.12 C
265 15-05-2021 22:00:00 10.1 C 93 % 9.02 C
266 15-05-2021 22:05:00 10.1 C 93 % 9.02 C
267 15-05-2021 22:10:00 10.1 C 93 % 9.02 C
268 15-05-2021 22:15:00 9.9 C 93 % 8.82 C
269 15-05-2021 22:20:00 9.9 C 93 % 8.82 C
270 15-05-2021 22:25:00 9.9 C 93 % 8.82 C
271 15-05-2021 22:30:00 9.9 C 93 % 8.82 C
272 15-05-2021 22:35:00 9.8 C 93 % 8.72 C
273 15-05-2021 22:40:00 9.8 C 93 % 8.72 C
274 15-05-2021 22:45:00 9.8 C 93 % 8.72 C
275 15-05-2021 22:50:00 9.8 C 93 % 8.72 C
Sensor: Nr:Datum:Temp:Feuchte:Taupunkt:
Aussen-T/F 276 15-05-2021 22:55:00 9.8 C 93 % 8.72 C
277 15-05-2021 23:00:00 9.8 C 94 % 8.88 C
278 15-05-2021 23:05:00 9.8 C 94 % 8.88 C
279 15-05-2021 23:10:00 9.8 C 94 % 8.88 C
280 15-05-2021 23:15:00 9.9 C 94 % 8.98 C
281 15-05-2021 23:20:00 10 C 94 % 9.08 C
282 15-05-2021 23:25:00 10.1 C 94 % 9.18 C
283 15-05-2021 23:30:00 10.1 C 94 % 9.18 C
284 15-05-2021 23:35:00 10.1 C 93 % 9.02 C
285 15-05-2021 23:40:00 10.1 C 93 % 9.02 C
286 15-05-2021 23:45:00 10.1 C 93 % 9.02 C
287 15-05-2021 23:50:00 10.1 C 92 % 8.86 C
288 15-05-2021 23:55:00 10.1 C 92 % 8.86 C

Legende:
   Min
   Max


Maximal/Minimal-Werte vom 15.05.2021 - 15.05.2021

Sensor Min Max Avg
Temp
(Aussen-T/F)
8.1 °C
15-05-2021  03:55:00
14.3 °C
15-05-2021  11:35:00
11.4 °C
Feuchte
(Aussen-T/F)
74 %
15-05-2021  11:30:00
94 %
15-05-2021  23:00:00
87.43 %
Taupunkt
(Aussen-T/F)
6.66 C
15-05-2021  03:40:00
11.77 C
15-05-2021  15:15:00
9.32 C

Die Daten stammen von einer Davis Vantage Pro 2 Wetter-Station und werden unter Linux mit der Software wview2wettercgi und aufbereitet. Alle Angaben erfolgen ohne Gewähr für ihre Vollständigkeit oder Richtigkeit.
Kontakt: Rainer Krienke krienke@uni-koblenz.de . Meine Webseiten an der Uni Koblenz oder privat.
Version: $Revision: 0.78 $